Time,TemperatureF,DewpointF,PressureIn,WindDirection,WindDirectionDegrees,WindSpeedMPH,WindSpeedGustMPH,Humidity,HourlyPrecipIn,Conditions,Clouds,dailyrainin,SoftwareType,DateUTC
2013-04-19 00:01:00,68.1,67.0,30.05,ESE,112,0.0,0.0,97,0.00,,,0.00,weatherlink.com 1.10,2013-04-19 04:01:00,
2013-04-19 00:15:00,68.0,67.0,30.05,SE,142,0.0,0.0,97,0.00,,,0.00,weatherlink.com 1.10,2013-04-19 04:15:00,
2013-04-19 00:30:00,68.2,67.0,30.05,SE,142,0.0,0.0,97,0.00,,,0.00,weatherlink.com 1.10,2013-04-19 04:30:00,
2013-04-19 00:45:00,68.6,68.0,30.04,SE,131,0.0,0.0,97,0.00,,,0.00,weatherlink.com 1.10,2013-04-19 04:45:00,
2013-04-19 01:00:00,68.7,68.0,30.04,NE,53,0.0,0.0,97,0.00,,,0.00,weatherlink.com 1.10,2013-04-19 05:00:00,
2013-04-19 01:15:00,68.7,68.0,30.04,NE,53,0.0,0.0,97,0.00,,,0.00,weatherlink.com 1.10,2013-04-19 05:15:00,
2013-04-19 01:30:00,68.8,68.0,30.03,NE,53,0.0,0.0,98,0.00,,,0.00,weatherlink.com 1.10,2013-04-19 05:30:00,
2013-04-19 01:45:00,69.0,69.0,30.02,NE,53,0.0,1.0,98,0.00,,,0.00,weatherlink.com 1.10,2013-04-19 05:45:00,
2013-04-19 02:00:00,68.6,68.0,30.01,NE,53,0.0,0.0,97,0.00,,,0.00,weatherlink.com 1.10,2013-04-19 06:00:00,
2013-04-19 02:15:00,68.3,68.0,30.01,NE,53,0.0,0.0,98,0.00,,,0.00,weatherlink.com 1.10,2013-04-19 06:15:00,
2013-04-19 02:30:00,68.3,68.0,30.00,NE,53,0.0,0.0,98,0.00,,,0.00,weatherlink.com 1.10,2013-04-19 06:30:00,
2013-04-19 02:45:00,68.0,68.0,30.00,NE,53,0.0,0.0,98,0.00,,,0.00,weatherlink.com 1.10,2013-04-19 06:45:00,
2013-04-19 03:00:00,67.6,67.0,30.00,NE,53,0.0,0.0,98,0.00,,,0.00,weatherlink.com 1.10,2013-04-19 07:00:00,
2013-04-19 03:15:00,67.3,67.0,30.00,NE,53,0.0,0.0,98,0.00,,,0.00,weatherlink.com 1.10,2013-04-19 07:15:00,
2013-04-19 03:30:00,67.4,67.0,29.99,SSE,167,0.0,1.0,99,0.00,,,0.00,weatherlink.com 1.10,2013-04-19 07:30:00,
2013-04-19 03:45:00,67.7,67.0,29.98,SSE,165,0.0,0.0,99,0.00,,,0.00,weatherlink.com 1.10,2013-04-19 07:45:00,
2013-04-19 04:00:00,67.6,67.0,29.98,NE,44,0.0,1.0,99,0.00,,,0.00,weatherlink.com 1.10,2013-04-19 08:00:00,
2013-04-19 04:15:00,67.6,67.0,29.98,NE,44,0.0,0.0,99,0.00,,,0.00,weatherlink.com 1.10,2013-04-19 08:15:00,
2013-04-19 04:30:00,67.6,67.0,29.98,West,278,0.0,0.0,99,0.00,,,0.00,weatherlink.com 1.10,2013-04-19 08:30:00,
2013-04-19 04:45:00,67.6,67.0,29.98,West,279,0.0,0.0,99,0.00,,,0.00,weatherlink.com 1.10,2013-04-19 08:45:00,
2013-04-19 05:00:00,67.6,67.0,29.98,West,279,0.0,0.0,99,0.00,,,0.00,weatherlink.com 1.10,2013-04-19 09:00:00,
2013-04-19 05:15:00,67.4,67.0,29.98,West,279,0.0,0.0,99,0.00,,,0.00,weatherlink.com 1.10,2013-04-19 09:15:00,
2013-04-19 05:30:00,67.6,67.0,29.98,WNW,285,0.0,0.0,99,0.00,,,0.00,weatherlink.com 1.10,2013-04-19 09:30:00,
2013-04-19 05:45:00,67.6,67.0,29.97,NNW,346,0.0,0.0,99,0.00,,,0.00,weatherlink.com 1.10,2013-04-19 09:45:00,
2013-04-19 06:00:00,67.7,67.0,29.98,NNW,346,0.0,0.0,99,0.00,,,0.00,weatherlink.com 1.10,2013-04-19 10:00:00,
2013-04-19 06:15:00,67.8,68.0,29.98,NNW,346,0.0,0.0,99,0.00,,,0.00,weatherlink.com 1.10,2013-04-19 10:15:00,
2013-04-19 06:30:00,67.9,68.0,29.98,NNW,346,0.0,0.0,99,0.00,,,0.00,weatherlink.com 1.10,2013-04-19 10:30:00,
2013-04-19 06:45:00,67.7,67.0,29.98,NNW,346,0.0,1.0,99,0.00,,,0.00,weatherlink.com 1.10,2013-04-19 10:45:00,
2013-04-19 07:00:00,68.1,68.0,29.99,NNW,346,0.0,1.0,99,0.00,,,0.00,weatherlink.com 1.10,2013-04-19 11:00:00,
2013-04-19 07:15:00,68.5,68.0,29.99,NNW,346,0.0,1.0,99,0.00,,,0.00,weatherlink.com 1.10,2013-04-19 11:15:00,
2013-04-19 07:30:00,69.2,69.0,29.99,NW,313,0.0,1.0,99,0.00,,,0.00,weatherlink.com 1.10,2013-04-19 11:30:00,
2013-04-19 07:45:00,69.7,69.0,30.00,NW,319,0.0,0.0,99,0.00,,,0.00,weatherlink.com 1.10,2013-04-19 11:45:00,
2013-04-19 08:00:00,70.3,70.0,30.00,NNE,30,0.0,1.0,99,0.00,,,0.00,weatherlink.com 1.10,2013-04-19 12:00:00,
2013-04-19 08:15:00,71.1,71.0,30.00,SW,217,0.0,2.0,99,0.00,,,0.00,weatherlink.com 1.10,2013-04-19 12:15:00,
2013-04-19 08:31:00,72.2,71.0,30.00,NNE,28,0.0,3.0,97,0.00,,,0.00,weatherlink.com 1.10,2013-04-19 12:31:00,
2013-04-19 08:46:00,73.5,72.0,30.00,NNE,25,0.0,2.0,95,0.00,,,0.00,weatherlink.com 1.10,2013-04-19 12:46:00,
2013-04-19 09:01:00,74.9,73.0,30.00,SSW,203,1.0,8.0,93,0.00,,,0.00,weatherlink.com 1.10,2013-04-19 13:01:00,
2013-04-19 09:16:00,75.8,73.0,30.00,ENE,72,1.0,4.0,91,0.00,,,0.00,weatherlink.com 1.10,2013-04-19 13:16:00,
2013-04-19 09:31:00,76.0,73.0,30.00,NE,53,1.0,2.0,90,0.00,,,0.00,weatherlink.com 1.10,2013-04-19 13:31:00,
2013-04-19 09:46:00,76.0,73.0,30.00,North,8,0.0,6.0,89,0.00,,,0.00,weatherlink.com 1.10,2013-04-19 13:46:00,
2013-04-19 10:01:00,76.1,72.0,30.00,East,86,4.0,10.0,88,0.00,,,0.00,weatherlink.com 1.10,2013-04-19 14:01:00,
2013-04-19 10:16:00,76.2,73.0,30.00,SW,219,3.0,7.0,88,0.00,,,0.00,weatherlink.com 1.10,2013-04-19 14:16:00,
2013-04-19 10:31:00,77.6,74.0,30.00,ESE,107,0.0,7.0,87,0.00,,,0.00,weatherlink.com 1.10,2013-04-19 14:31:00,
2013-04-19 10:46:00,78.6,74.0,29.99,NE,55,3.0,6.0,85,0.00,,,0.00,weatherlink.com 1.10,2013-04-19 14:46:00,
2013-04-19 11:01:00,79.9,74.0,29.99,NE,49,0.0,5.0,82,0.00,,,0.00,weatherlink.com 1.10,2013-04-19 15:01:00,
2013-04-19 11:16:00,80.0,73.0,29.98,South,173,1.0,8.0,79,0.00,,,0.00,weatherlink.com 1.10,2013-04-19 15:16:00,
2013-04-19 11:31:00,81.2,74.0,29.98,ESE,106,5.0,9.0,78,0.00,,,0.00,weatherlink.com 1.10,2013-04-19 15:31:00,
2013-04-19 11:47:00,81.2,73.0,29.98,NW,314,0.0,7.0,75,0.00,,,0.00,weatherlink.com 1.10,2013-04-19 15:47:00,
2013-04-19 12:01:00,81.2,73.0,29.97,ESE,109,1.0,7.0,75,0.00,,,0.00,weatherlink.com 1.10,2013-04-19 16:01:00,
2013-04-19 12:16:00,81.7,72.0,29.97,SSW,212,0.0,6.0,73,0.00,,,0.00,weatherlink.com 1.10,2013-04-19 16:16:00,
2013-04-19 12:31:00,81.1,70.0,29.97,ESE,119,1.0,12.0,69,0.00,,,0.00,weatherlink.com 1.10,2013-04-19 16:31:00,
2013-04-19 12:46:00,80.4,69.0,29.96,WSW,249,0.0,8.0,68,0.00,,,0.00,weatherlink.com 1.10,2013-04-19 16:46:00,
2013-04-19 13:01:00,79.5,71.0,29.96,ESE,106,0.0,5.0,74,0.00,,,0.00,weatherlink.com 1.10,2013-04-19 17:01:00,
2013-04-19 13:16:00,78.1,70.0,29.96,SE,134,0.0,3.0,75,0.00,,,0.00,weatherlink.com 1.10,2013-04-19 17:16:00,
2013-04-19 13:31:00,77.9,70.0,29.96,South,190,3.0,13.0,77,0.00,,,0.00,weatherlink.com 1.10,2013-04-19 17:31:00,
2013-04-19 13:46:00,78.5,71.0,29.94,SSE,167,1.0,12.0,78,0.00,,,0.00,weatherlink.com 1.10,2013-04-19 17:46:00,
2013-04-19 14:31:00,79.9,72.0,29.92,East,99,1.0,6.0,77,0.00,,,0.00,weatherlink.com 1.10,2013-04-19 18:31:00,
2013-04-19 14:46:00,78.5,72.0,29.93,SE,131,1.0,10.0,81,0.00,,,0.00,weatherlink.com 1.10,2013-04-19 18:46:00,
2013-04-19 15:17:00,80.7,73.0,29.91,NE,43,2.0,11.0,77,0.00,,,0.00,weatherlink.com 1.10,2013-04-19 19:17:00,
2013-04-19 15:32:00,80.6,73.0,29.91,West,276,0.0,15.0,78,0.00,,,0.00,weatherlink.com 1.10,2013-04-19 19:32:00,
2013-04-19 15:47:00,79.7,73.0,29.91,WSW,240,0.0,9.0,79,0.00,,,0.00,weatherlink.com 1.10,2013-04-19 19:47:00,
2013-04-19 16:02:00,79.5,72.0,29.90,South,179,2.0,7.0,78,0.00,,,0.00,weatherlink.com 1.10,2013-04-19 20:02:00,
2013-04-19 16:17:00,79.6,73.0,29.90,NNE,32,3.0,6.0,79,0.00,,,0.00,weatherlink.com 1.10,2013-04-19 20:17:00,
2013-04-19 16:32:00,79.0,73.0,29.89,SW,234,3.0,10.0,81,0.00,,,0.00,weatherlink.com 1.10,2013-04-19 20:32:00,
2013-04-19 16:47:00,78.8,73.0,29.89,SSE,150,2.0,7.0,81,0.00,,,0.00,weatherlink.com 1.10,2013-04-19 20:47:00,
2013-04-19 17:02:00,79.0,72.0,29.89,South,179,2.0,7.0,79,0.00,,,0.00,weatherlink.com 1.10,2013-04-19 21:02:00,
2013-04-19 17:17:00,78.4,72.0,29.88,ENE,70,3.0,7.0,81,0.00,,,0.00,weatherlink.com 1.10,2013-04-19 21:17:00,
2013-04-19 17:32:00,78.5,72.0,29.88,WNW,295,1.0,8.0,81,0.00,,,0.00,weatherlink.com 1.10,2013-04-19 21:32:00,
2013-04-19 17:47:00,78.4,72.0,29.88,SE,139,3.0,8.0,80,0.00,,,0.00,weatherlink.com 1.10,2013-04-19 21:47:00,
2013-04-19 18:02:00,77.7,71.0,29.87,SSE,167,1.0,7.0,81,0.00,,,0.00,weatherlink.com 1.10,2013-04-19 22:02:00,
2013-04-19 18:17:00,77.1,71.0,29.88,WSW,242,1.0,5.0,82,0.00,,,0.00,weatherlink.com 1.10,2013-04-19 22:17:00,
2013-04-19 18:32:00,76.8,72.0,29.90,SSW,205,1.0,6.0,84,0.00,,,0.00,weatherlink.com 1.10,2013-04-19 22:32:00,
2013-04-19 18:47:00,76.4,72.0,29.90,ENE,65,1.0,9.0,85,0.00,,,0.00,weatherlink.com 1.10,2013-04-19 22:47:00,
2013-04-19 19:02:00,76.1,72.0,29.89,ESE,105,5.0,11.0,87,0.00,,,0.00,weatherlink.com 1.10,2013-04-19 23:02:00,
2013-04-19 19:17:00,75.9,72.0,29.89,ENE,75,6.0,6.0,88,0.00,,,0.00,weatherlink.com 1.10,2013-04-19 23:17:00,
2013-04-19 19:32:00,76.0,72.0,29.90,East,86,0.0,9.0,88,0.00,,,0.00,weatherlink.com 1.10,2013-04-19 23:32:00,
2013-04-19 19:47:00,75.9,72.0,29.90,West,262,0.0,7.0,88,0.00,,,0.00,weatherlink.com 1.10,2013-04-19 23:47:00,
2013-04-19 20:02:00,71.0,68.0,29.94,West,261,2.0,14.0,89,0.07,,,0.07,weatherlink.com 1.10,2013-04-20 00:02:00,
2013-04-19 20:17:00,68.6,67.0,29.93,East,82,1.0,7.0,95,0.49,,,0.49,weatherlink.com 1.10,2013-04-20 00:17:00,
2013-04-19 20:32:00,68.3,67.0,29.91,SE,127,0.0,5.0,96,0.56,,,0.56,weatherlink.com 1.10,2013-04-20 00:32:00,
2013-04-19 20:47:00,68.2,67.0,29.91,ESE,110,0.0,2.0,97,0.61,,,0.61,weatherlink.com 1.10,2013-04-20 00:47:00,
2013-04-19 21:02:00,68.2,67.0,29.91,North,4,0.0,2.0,97,0.51,,,0.62,weatherlink.com 1.10,2013-04-20 01:02:00,
2013-04-19 21:17:00,68.0,67.0,29.92,ESE,117,0.0,1.0,97,0.14,,,0.63,weatherlink.com 1.10,2013-04-20 01:17:00,
2013-04-19 21:32:00,67.9,67.0,29.93,SW,231,0.0,2.0,97,0.08,,,0.64,weatherlink.com 1.10,2013-04-20 01:32:00,
2013-04-19 21:47:00,67.8,67.0,29.92,NNE,23,0.0,3.0,97,0.05,,,0.66,weatherlink.com 1.10,2013-04-20 01:47:00,
2013-04-19 22:02:00,67.8,67.0,29.92,NNE,24,0.0,1.0,97,0.04,,,0.66,weatherlink.com 1.10,2013-04-20 02:02:00,
2013-04-19 22:17:00,67.7,67.0,29.91,ENE,66,0.0,0.0,98,0.03,,,0.66,weatherlink.com 1.10,2013-04-20 02:17:00,
2013-04-19 22:32:00,67.6,67.0,29.92,ENE,66,0.0,0.0,98,0.01,,,0.66,weatherlink.com 1.10,2013-04-20 02:32:00,
2013-04-19 22:47:00,67.6,67.0,29.91,East,94,0.0,1.0,98,0.00,,,0.66,weatherlink.com 1.10,2013-04-20 02:47:00,
2013-04-19 23:02:00,67.6,67.0,29.92,East,99,0.0,1.0,98,0.00,,,0.66,weatherlink.com 1.10,2013-04-20 03:02:00,
2013-04-19 23:17:00,67.7,67.0,29.92,NE,44,0.0,1.0,98,0.00,,,0.66,weatherlink.com 1.10,2013-04-20 03:17:00,
2013-04-19 23:32:00,67.9,67.0,29.92,WNW,291,0.0,0.0,98,0.00,,,0.66,weatherlink.com 1.10,2013-04-20 03:32:00,
2013-04-19 23:47:00,68.0,68.0,29.93,SE,125,0.0,1.0,98,0.00,,,0.66,weatherlink.com 1.10,2013-04-20 03:47:00,